Weather 🌤️

Recent data

Temperatures

Wind

Pressure

Humidity & Precipitation

Last data
obsTime qcStatus tempAvg heatindexAvg windspeedAvg windgustAvg winddirAvg pressureAvg humidityAvg precipRate precipTotal
2026-09-02 19:59:52 1 27.5 27.2 2.8 5.5 218 1000.17 39.2 0 0
2026-09-02 19:54:52 1 27.6 27.3 1.2 7.7 190 1000 40 0 0
2026-09-02 19:49:52 1 27.7 27.4 3.1 7.9 259 999.83 39.2 0 0
2026-09-02 19:44:52 1 27.7 27.4 1.8 7.9 206 999.83 39 0 0
2026-09-02 19:39:51 1 27.8 27.4 1.2 7.9 183 999.83 39 0 0
2026-09-02 19:34:52 1 27.9 27.5 1.9 7.9 199 999.83 38.4 0 0
2026-09-02 19:29:52 1 28 27.5 1.2 7.9 165 999.83 38.2 0 0
2026-09-02 19:24:52 1 28.1 27.6 1.3 9 200 999.66 37.8 0 0
2026-09-02 19:19:52 1 28.2 27.7 1.5 9 175 999.83 37.8 0 0
2026-09-02 19:14:52 1 28.2 27.7 0.9 9 205 999.66 37.8 0 0
2026-09-02 19:09:52 1 28.2 27.7 2.6 9 228 999.66 38 0 0
2026-09-02 19:04:52 1 28.2 27.7 3 11 226 999.66 37.8 0 0

Hourly data

Temperatures

Wind

Pressure

Humidity & Precipitation

Last data
obsTime qcStatus tempAvg heatindexAvg windspeedAvg windgustAvg winddirAvg pressureAvg humidityAvg precipRate precipTotal
2026-09-02 19:59:52 1 27.9 27.5 1.9 8.3 211 1000 38.5 0 0
2026-09-02 18:59:52 1 28.3 27.8 4 17.3 217 999.66 38.2 0 0
2026-09-02 17:59:52 1 27.9 27.7 3.5 9.5 216 1000 41.2 0 0
2026-09-02 16:59:52 1 27.6 27.5 3.6 10.1 263 1000 42.7 0 0
2026-09-02 15:59:52 1 27 27.1 4 8.9 232 1000.34 44.7 0 0
2026-09-02 14:59:52 1 26.4 26.3 3.6 10.5 245 1000.68 46.6 0 0
2026-09-02 13:59:52 1 25.5 25.4 3.4 9.9 210 1001.02 49.1 0 0
2026-09-02 12:59:52 1 24.6 24.4 2.9 7.3 213 1001.36 51.6 0 0
2026-09-02 11:59:52 1 23.1 22.8 2.5 6.1 201 1001.53 54.3 0 0
2026-09-02 10:59:52 1 20.6 20.5 2.2 5.6 219 1001.53 58.6 0 0
2026-09-02 09:59:51 0 19.2 19.2 1 3.6 228 1001.19 60.8 0 0
2026-09-02 08:59:54 0 18.6 18.6 0.3 2.9 197 1000.85 61 0 0
2026-09-02 07:59:53 0 18.5 18.5 0.3 2.9 185 1000.51 60.7 0 0
2026-09-02 06:59:52 0 18.8 18.8 0.5 2.6 177 1000 59.3 0 0
2026-09-02 05:59:56 0 19.7 19.7 0.6 4 215 1000.17 56.8 0 0
2026-09-02 04:59:54 0 20.3 20.3 1.1 4.2 226 1000 55.3 0 0
2026-09-02 03:59:53 0 20.9 20.8 1.6 5.9 227 1000 53.7 0 0
2026-09-02 02:59:54 0 21.4 21 1.1 4.2 227 1000 52.5 0 0
2026-09-02 01:59:56 0 22 21.6 1.6 6.2 222 1000 51.6 0 0
2026-09-02 00:59:56 0 22.6 22.2 2.1 7.6 229 1000 49.8 0 0
2026-09-01 23:59:56 0 23.1 22.7 3.7 7 227 999.66 47.6 0 0
2026-09-01 22:59:51 0 23.8 23.5 2.6 6.1 227 999.66 46 0 0
2026-09-01 21:59:56 0 24.6 24.2 2.1 5.3 227 999.32 43.3 0 0
2026-09-01 20:59:56 0 25.3 24.9 1.1 6.3 236 998.65 41.4 0 0